Grand Forks Air Force Base

Airport
ICAO code: 
KRDR
Summary
ICAO Region: 
NAM
Territory: 
Location: 
Grand Forks, North Dakota,
Coordinates: 
Aerial View: 
47° 57' 43.758" N, 97° 23' 2.09" W
Airport CFIT: 
Altimeter Temperature Error Correction
Airport WX: 
Cumulonimbus
Metar
Observation
KRDR 021356Z AUTO 36004KT 10SM BKN025 BKN140 BKN160 M03/M04 A2990 RMK AO2 CIG 025V160 SLP141 T10311039
Station
Grand Forks Air Force Base
Date/Time
2021-12-02 13:56:00
Wind direction
360°
Wind speed
04 kts
Lowest cloud amount
broken clouds
Temperature
-3.1°C
Dew point
-3.9°C
Humidity
94%
Weather condition
n/a

Description

Grand Forks Air Force Base is a United States Air Force installation located just to the north of Emerado, North Dakota and approximately 26 km west of the central business district of Grand Forks, North Dakota.

Climatology

Humid Continental climate (Köppen climate classification Dfb) - Variable weather patterns and a large seasonal temperature variance. Summers are often warm and humid with frequent thunderstorms and winters can be very cold with frequent snowfall and persistent snow cover.

Runways

Designator Length Width Surface Rops
17/35 3764 46 ASP Yes/Yes
Airport map: 
Aerial View: 

SKYbrary Partners:

Safety knowledge contributed by: